Time;durP1;ratioP1;P1;durP2;ratioP2;P2;SDS_P1;SDS_P2;PMS_P1;PMS_P2;Temp;Humidity;BMP_temperature;BMP_pressure;BME280_temperature;BME280_humidity;BME280_pressure;Samples;Min_cycle;Max_cycle;Signal;HPM_P1;HPM_P2
2022/04/28 00:02:34;;;;;;;11.20;10.10;;;10.00;99.90;;;;;;6302737;28;20335;-54
2022/04/28 00:05:37;;;;;;;10.97;10.00;;;10.00;99.90;;;;;;6300028;28;20645;-55
2022/04/28 00:08:40;;;;;;;10.37;9.47;;;9.90;99.90;;;;;;6297883;28;20657;-54
2022/04/28 00:11:42;;;;;;;10.60;9.70;;;10.00;99.90;;;;;;6300351;28;20575;-53
2022/04/28 00:14:45;;;;;;;10.47;9.63;;;9.90;99.90;;;;;;6301660;28;20339;-53
2022/04/28 00:17:49;;;;;;;9.73;8.90;;;9.90;99.90;;;;;;6299622;28;20898;-54
2022/04/28 00:20:52;;;;;;;12.40;11.20;;;9.90;99.90;;;;;;6310712;28;20241;-55
2022/04/28 00:23:55;;;;;;;12.10;11.03;;;9.90;99.90;;;;;;6298883;28;20387;-55
2022/04/28 00:26:57;;;;;;;11.90;10.77;;;9.90;99.90;;;;;;6306418;28;20251;-55
2022/04/28 00:30:00;;;;;;;11.50;10.57;;;9.90;99.90;;;;;;6310995;28;20559;-55
2022/04/28 00:33:05;;;;;;;13.83;11.30;;;10.00;99.90;;;;;;6303272;28;20233;-54
2022/04/28 00:36:08;;;;;;;11.77;10.73;;;10.00;99.90;;;;;;6300865;28;20243;-55
2022/04/28 00:39:12;;;;;;;11.03;10.10;;;9.90;99.90;;;;;;6309166;28;20329;-55
2022/04/28 00:42:16;;;;;;;11.50;10.50;;;9.90;99.90;;;;;;6301223;28;20744;-55
2022/04/28 00:45:19;;;;;;;12.73;11.57;;;9.90;99.90;;;;;;6293592;28;20285;-55
2022/04/28 00:51:44;;;;;;;10.83;9.90;;;9.90;99.90;;;;;;6284349;28;20225;-55
2022/04/28 00:54:49;;;;;;;10.80;9.80;;;9.80;99.90;;;;;;6285094;28;20800;-54
2022/04/28 00:57:53;;;;;;;14.33;11.27;;;9.80;99.90;;;;;;6307160;28;20319;-55
2022/04/28 01:00:56;;;;;;;12.50;11.33;;;9.80;99.90;;;;;;6307863;28;20244;-55
2022/04/28 01:04:01;;;;;;;12.90;11.80;;;9.80;99.90;;;;;;6306315;28;20277;-53
2022/04/28 01:07:04;;;;;;;16.33;12.23;;;9.80;99.90;;;;;;6294365;28;20608;-54
2022/04/28 01:10:07;;;;;;;11.13;10.17;;;9.80;99.90;;;;;;6307862;28;20365;-55
2022/04/28 01:13:13;;;;;;;12.17;10.97;;;9.80;99.90;;;;;;6304635;28;20237;-54
2022/04/28 01:16:16;;;;;;;12.87;11.77;;;9.70;99.90;;;;;;6298867;28;20240;-55
2022/04/28 01:19:20;;;;;;;12.37;11.00;;;9.70;99.90;;;;;;6308686;28;20386;-55
2022/04/28 01:22:26;;;;;;;13.33;12.03;;;9.70;99.90;;;;;;6300979;28;20324;-60
2022/04/28 01:25:29;;;;;;;12.40;11.20;;;9.70;99.90;;;;;;6301673;28;20525;-54
2022/04/28 01:28:33;;;;;;;12.83;11.73;;;9.60;99.90;;;;;;6299385;28;20771;-55
2022/04/28 01:31:36;;;;;;;12.27;11.10;;;9.60;99.90;;;;;;6300522;28;20312;-55
2022/04/28 01:34:39;;;;;;;11.57;10.57;;;9.50;99.90;;;;;;6300519;28;20804;-56
2022/04/28 01:37:43;;;;;;;11.17;10.10;;;9.50;99.90;;;;;;6299302;28;20287;-54
2022/04/28 01:40:46;;;;;;;11.77;10.70;;;9.50;99.90;;;;;;6299686;28;20339;-55
2022/04/28 01:43:50;;;;;;;12.10;10.90;;;9.50;99.90;;;;;;6307929;28;20323;-55
2022/04/28 01:46:52;;;;;;;13.17;11.90;;;9.40;99.90;;;;;;6294591;28;20235;-55
2022/04/28 01:49:56;;;;;;;12.57;10.97;;;9.50;99.90;;;;;;6300657;28;20839;-56
2022/04/28 01:56:21;;;;;;;12.00;10.90;;;9.50;99.90;;;;;;6301371;28;20710;-56
2022/04/28 01:59:24;;;;;;;11.60;10.70;;;9.40;99.90;;;;;;6296718;28;20232;-55
2022/04/28 02:02:27;;;;;;;12.40;11.13;;;9.40;99.90;;;;;;6298426;28;20247;-55
2022/04/28 02:05:31;;;;;;;12.10;11.00;;;9.30;99.90;;;;;;6298378;28;20382;-59
2022/04/28 02:08:35;;;;;;;11.23;10.17;;;9.40;99.90;;;;;;6306615;28;20255;-55
2022/04/28 02:11:38;;;;;;;12.90;10.40;;;9.30;99.90;;;;;;6292195;28;20787;-55
2022/04/28 02:14:41;;;;;;;11.30;10.27;;;9.30;99.90;;;;;;6285408;28;20333;-55
2022/04/28 02:17:44;;;;;;;11.63;10.50;;;9.30;99.90;;;;;;6300367;28;20238;-55
2022/04/28 02:20:47;;;;;;;10.43;9.40;;;9.30;99.90;;;;;;6306293;28;20237;-55
2022/04/28 02:23:51;;;;;;;11.20;10.00;;;9.30;99.90;;;;;;6284838;28;20447;-55
2022/04/28 02:26:54;;;;;;;11.33;10.30;;;9.30;99.90;;;;;;6303815;28;20236;-55
2022/04/28 02:29:56;;;;;;;10.73;9.93;;;9.30;99.90;;;;;;6299142;28;20341;-54
2022/04/28 02:33:11;;;;;;;10.07;9.27;;;9.30;99.90;;;;;;6290083;28;20330;-55
2022/04/28 02:36:14;;;;;;;10.80;9.90;;;9.20;99.90;;;;;;6291604;28;20247;-55
2022/04/28 02:39:21;;;;;;;9.57;8.70;;;9.20;99.90;;;;;;6307543;28;20327;-55
2022/04/28 02:42:24;;;;;;;9.13;8.33;;;9.20;99.90;;;;;;6291330;28;20241;-55
2022/04/28 02:45:28;;;;;;;8.13;7.63;;;9.20;99.90;;;;;;6290372;28;20236;-54
2022/04/28 02:48:31;;;;;;;9.47;8.77;;;9.10;99.90;;;;;;6310558;27;20227;-55
2022/04/28 02:51:35;;;;;;;9.60;8.70;;;9.10;99.90;;;;;;6301920;28;20323;-55
2022/04/28 02:54:39;;;;;;;9.50;8.80;;;9.10;99.90;;;;;;6282098;28;20614;-54
2022/04/28 02:57:42;;;;;;;9.80;8.97;;;9.00;99.90;;;;;;6297803;28;20251;-54
2022/04/28 03:00:44;;;;;;;13.80;9.97;;;9.00;99.90;;;;;;6306925;28;20575;-54
2022/04/28 03:03:47;;;;;;;10.73;9.77;;;8.90;99.90;;;;;;6317239;28;20315;-55
2022/04/28 03:13:43;;;;;;;10.80;10.00;;;8.90;99.90;;;;;;6287173;28;20651;-53
2022/04/28 03:16:46;;;;;;;10.03;9.20;;;9.00;99.90;;;;;;6294927;28;20241;-55
2022/04/28 03:19:50;;;;;;;10.23;9.43;;;8.80;99.90;;;;;;6298162;28;20319;-54
2022/04/28 03:22:53;;;;;;;10.07;9.27;;;8.80;99.90;;;;;;6297202;28;20233;-55
2022/04/28 03:26:01;;;;;;;10.57;9.37;;;8.70;99.90;;;;;;6295660;28;20410;-55
2022/04/28 03:29:04;;;;;;;9.87;9.07;;;8.70;99.90;;;;;;6306335;28;20292;-55
2022/04/28 03:32:10;;;;;;;10.40;9.40;;;8.60;99.90;;;;;;6291179;28;20267;-55
2022/04/28 03:35:14;;;;;;;9.30;8.60;;;8.60;99.90;;;;;;6304212;28;20255;-55
2022/04/28 03:38:16;;;;;;;10.77;9.83;;;8.60;99.90;;;;;;6301585;28;20228;-54
2022/04/28 03:41:20;;;;;;;10.80;9.77;;;8.60;99.90;;;;;;6313800;28;20235;-54
2022/04/28 03:44:23;;;;;;;11.17;9.03;;;8.50;99.90;;;;;;6327482;28;20312;-55
2022/04/28 03:47:32;;;;;;;9.90;9.10;;;8.50;99.90;;;;;;6320839;27;20232;-55
2022/04/28 03:50:34;;;;;;;9.97;9.17;;;8.50;99.90;;;;;;6318050;28;20244;-55
2022/04/28 03:53:37;;;;;;;8.67;8.07;;;8.50;99.90;;;;;;6332631;27;20289;-56
2022/04/28 03:56:41;;;;;;;9.73;8.83;;;8.50;99.90;;;;;;6331374;27;20258;-55
2022/04/28 03:59:47;;;;;;;7.87;7.37;;;8.40;99.90;;;;;;6322611;28;20229;-56
2022/04/28 04:02:50;;;;;;;12.27;10.23;;;8.40;99.90;;;;;;6319302;27;20228;-55
2022/04/28 04:05:53;;;;;;;11.20;10.00;;;8.40;99.90;;;;;;6310082;27;20247;-54
2022/04/28 04:08:56;;;;;;;12.13;10.53;;;8.40;99.90;;;;;;6304587;28;20374;-55
2022/04/28 04:12:00;;;;;;;10.47;9.53;;;8.50;99.90;;;;;;6307848;28;20824;-55
2022/04/28 04:15:03;;;;;;;9.60;8.80;;;8.50;99.90;;;;;;6300173;28;20713;-55
2022/04/28 04:18:09;;;;;;;10.23;9.30;;;8.50;99.90;;;;;;6316377;27;21062;-55
2022/04/28 04:21:11;;;;;;;12.03;9.63;;;8.50;99.90;;;;;;6335183;28;20427;-55
2022/04/28 04:24:14;;;;;;;9.90;9.10;;;8.50;99.90;;;;;;6331070;27;20385;-55
2022/04/28 04:27:20;;;;;;;9.77;8.77;;;8.50;99.90;;;;;;6326973;27;20245;-55
2022/04/28 04:33:44;;;;;;;12.57;8.90;;;8.60;99.90;;;;;;6297940;28;20745;-54
2022/04/28 04:36:46;;;;;;;10.20;9.17;;;8.60;99.90;;;;;;6309851;28;20236;-55
2022/04/28 04:39:49;;;;;;;10.23;9.23;;;8.60;99.90;;;;;;6301078;28;20236;-55
2022/04/28 04:42:53;;;;;;;10.63;9.63;;;8.70;99.90;;;;;;6308660;28;20228;-55
2022/04/28 04:45:56;;;;;;;12.57;9.47;;;8.70;99.90;;;;;;6305997;28;20326;-54
2022/04/28 04:48:59;;;;;;;11.37;10.00;;;8.90;99.90;;;;;;6306696;28;20234;-55
2022/04/28 04:52:02;;;;;;;10.03;9.07;;;8.80;99.90;;;;;;6310532;28;20228;-55
2022/04/28 04:55:05;;;;;;;10.30;9.33;;;8.80;99.90;;;;;;6328097;27;20555;-55
2022/04/28 04:58:13;;;;;;;10.90;9.80;;;8.90;99.90;;;;;;6317810;27;20232;-56
2022/04/28 05:01:16;;;;;;;10.37;9.30;;;9.00;99.90;;;;;;6333217;27;20277;-55
2022/04/28 05:04:22;;;;;;;10.87;9.97;;;9.10;99.90;;;;;;6326417;27;20251;-54
2022/04/28 05:07:29;;;;;;;10.83;9.73;;;9.10;99.90;;;;;;6308895;27;20316;-55
2022/04/28 05:10:32;;;;;;;9.63;8.63;;;9.20;99.90;;;;;;6313375;27;20230;-55
2022/04/28 05:13:38;;;;;;;10.83;9.83;;;9.30;99.90;;;;;;6311093;28;20486;-55
2022/04/28 05:16:40;;;;;;;9.70;8.53;;;9.40;99.90;;;;;;6298743;28;20243;-56
2022/04/28 05:19:43;;;;;;;10.73;9.70;;;9.50;99.90;;;;;;6308253;28;20346;-54
2022/04/28 05:22:47;;;;;;;14.17;10.07;;;9.60;99.90;;;;;;6309404;28;20297;-58
2022/04/28 05:25:54;;;;;;;10.70;9.73;;;9.70;99.90;;;;;;6301363;28;20232;-55
2022/04/28 05:28:59;;;;;;;12.07;8.93;;;9.90;99.90;;;;;;6310031;28;20336;-56
2022/04/28 05:32:01;;;;;;;10.83;9.37;;;9.90;99.90;;;;;;6309299;28;21083;-55
2022/04/28 05:35:05;;;;;;;11.00;9.20;;;10.10;99.90;;;;;;6306017;28;20228;-56
2022/04/28 05:38:09;;;;;;;11.93;10.43;;;10.10;99.90;;;;;;6301271;28;20382;-56
2022/04/28 05:41:13;;;;;;;9.80;8.93;;;10.30;99.90;;;;;;6304521;28;20311;-56
2022/04/28 05:47:39;;;;;;;12.97;10.30;;;10.50;99.90;;;;;;6307881;28;20236;-55
2022/04/28 05:50:43;;;;;;;14.73;8.77;;;10.60;99.90;;;;;;6298409;28;20740;-55
2022/04/28 05:53:45;;;;;;;13.23;9.63;;;10.80;99.90;;;;;;6304817;28;20233;-56
2022/04/28 05:56:48;;;;;;;9.33;8.40;;;10.90;99.90;;;;;;6304366;28;20420;-54
2022/04/28 05:59:52;;;;;;;12.83;8.97;;;11.00;99.90;;;;;;6306328;28;20228;-55
2022/04/28 06:02:55;;;;;;;9.23;8.03;;;11.10;99.90;;;;;;6324459;28;20318;-54
2022/04/28 06:05:58;;;;;;;9.17;8.30;;;11.20;99.90;;;;;;6330650;28;20242;-55
2022/04/28 06:09:01;;;;;;;10.87;9.27;;;11.20;99.90;;;;;;6329692;27;20318;-55
2022/04/28 06:12:05;;;;;;;11.23;9.10;;;11.30;99.90;;;;;;6330433;28;20610;-55
2022/04/28 06:15:13;;;;;;;9.47;8.53;;;11.30;99.90;;;;;;6327136;27;20751;-56
2022/04/28 06:18:16;;;;;;;10.57;9.43;;;11.40;99.90;;;;;;6332861;28;20335;-54
2022/04/28 06:21:19;;;;;;;9.93;8.90;;;11.40;99.90;;;;;;6330759;27;20232;-55
2022/04/28 06:24:22;;;;;;;10.60;9.60;;;11.40;99.90;;;;;;6332994;27;20231;-55
2022/04/28 06:27:28;;;;;;;9.80;8.93;;;11.40;99.90;;;;;;6324534;28;20242;-55
2022/04/28 06:30:51;;;;;;;12.83;9.43;;;11.40;99.90;;;;;;6332009;28;20530;-54
2022/04/28 06:33:53;;;;;;;9.90;8.50;;;11.40;99.90;;;;;;6328461;28;20296;-55
2022/04/28 06:36:56;;;;;;;10.10;9.20;;;11.50;99.90;;;;;;6331047;28;20840;-55
2022/04/28 06:40:00;;;;;;;11.03;10.10;;;11.60;99.90;;;;;;6330434;28;20614;-54
2022/04/28 06:43:03;;;;;;;12.10;11.00;;;11.80;99.90;;;;;;6319528;27;20517;-53
2022/04/28 06:46:25;;;;;;;13.03;11.27;;;11.80;99.90;;;;;;6305471;28;20267;-54
2022/04/28 06:49:28;;;;;;;11.77;10.60;;;12.00;99.90;;;;;;6316858;28;20247;-54
2022/04/28 06:52:30;;;;;;;13.80;11.23;;;12.00;99.90;;;;;;6330244;27;20653;-56
2022/04/28 06:55:33;;;;;;;14.27;11.23;;;12.10;99.90;;;;;;6328425;28;20232;-53
2022/04/28 06:58:37;;;;;;;22.67;11.17;;;12.30;99.90;;;;;;6339024;27;20311;-54
2022/04/28 07:01:43;;;;;;;13.73;11.30;;;12.30;99.90;;;;;;6330208;28;20276;-54
2022/04/28 07:04:45;;;;;;;13.23;11.00;;;12.40;99.90;;;;;;6328315;28;20232;-55
2022/04/28 07:07:49;;;;;;;11.93;10.70;;;12.50;99.90;;;;;;6321899;28;20330;-55
2022/04/28 07:10:52;;;;;;;11.63;10.47;;;12.60;99.90;;;;;;6316321;28;20311;-56
2022/04/28 07:13:54;;;;;;;14.17;10.10;;;12.80;99.90;;;;;;6328723;27;20665;-55
2022/04/28 07:16:58;;;;;;;11.53;9.73;;;13.10;99.90;;;;;;6331392;28;20797;-55
2022/04/28 07:20:01;;;;;;;11.20;9.10;;;13.30;99.90;;;;;;6331161;28;20359;-55
2022/04/28 07:23:04;;;;;;;9.27;8.37;;;13.60;99.90;;;;;;6326793;28;20228;-54
2022/04/28 07:26:07;;;;;;;10.87;8.83;;;14.00;99.90;;;;;;6328217;28;20238;-54
2022/04/28 07:29:10;;;;;;;11.83;8.80;;;14.20;99.90;;;;;;6334056;28;20257;-55
2022/04/28 07:32:14;;;;;;;14.83;8.03;;;14.30;99.90;;;;;;6332151;28;20232;-54
2022/04/28 07:35:24;;;;;;;8.53;7.67;;;14.60;99.90;;;;;;6326004;28;20651;-55
2022/04/28 07:38:27;;;;;;;15.67;8.33;;;14.70;99.90;;;;;;6330049;28;20342;-55
2022/04/28 07:41:30;;;;;;;9.53;6.77;;;14.70;99.90;;;;;;6329029;28;20373;-54
2022/04/28 07:44:34;;;;;;;6.63;6.00;;;14.60;99.90;;;;;;6332128;28;20280;-55
2022/04/28 07:47:39;;;;;;;10.23;6.90;;;14.60;99.90;;;;;;6331174;28;20244;-55
2022/04/28 07:50:42;;;;;;;6.60;5.90;;;14.50;99.90;;;;;;6333851;27;20327;-54
2022/04/28 07:53:44;;;;;;;9.90;7.13;;;14.70;99.90;;;;;;6334937;27;20273;-56
2022/04/28 07:56:47;;;;;;;13.20;7.17;;;14.80;99.90;;;;;;6327993;28;20238;-56
2022/04/28 07:59:50;;;;;;;8.97;6.63;;;14.80;99.90;;;;;;6331215;28;20251;-54
2022/04/28 08:02:54;;;;;;;9.67;7.43;;;14.90;99.90;;;;;;6327714;28;20232;-53
2022/04/28 08:05:58;;;;;;;6.50;5.80;;;15.00;99.90;;;;;;6329302;28;20654;-54
2022/04/28 08:09:01;;;;;;;13.60;7.47;;;15.10;99.90;;;;;;6305241;28;20323;-54
2022/04/28 08:12:06;;;;;;;9.13;7.70;;;15.10;99.90;;;;;;6302742;28;20224;-56
2022/04/28 08:15:10;;;;;;;10.03;7.60;;;15.10;99.90;;;;;;6306618;28;20236;-54
2022/04/28 08:18:14;;;;;;;10.20;8.17;;;15.10;99.90;;;;;;6306314;28;20229;-54
2022/04/28 08:21:26;;;;;;;8.10;7.30;;;15.10;99.90;;;;;;6322368;28;20638;-54
2022/04/28 08:24:29;;;;;;;11.60;8.50;;;15.20;99.90;;;;;;6335936;27;20554;-53
2022/04/28 08:27:31;;;;;;;10.97;7.67;;;15.20;99.90;;;;;;6328321;28;20240;-54
2022/04/28 08:30:34;;;;;;;9.93;7.27;;;15.20;99.90;;;;;;6324217;28;20501;-56
2022/04/28 08:33:38;;;;;;;12.57;7.60;;;15.30;99.90;;;;;;6330248;27;20228;-55
2022/04/28 08:36:41;;;;;;;9.37;8.13;;;15.30;99.90;;;;;;6334207;28;20264;-55
2022/04/28 08:39:44;;;;;;;8.97;7.60;;;15.40;99.90;;;;;;6330237;27;20228;-54
2022/04/28 08:42:49;;;;;;;11.80;7.77;;;15.20;99.90;;;;;;6337679;27;20269;-54
2022/04/28 08:49:31;;;;;;;11.03;7.73;;;15.40;99.90;;;;;;6333387;27;20513;-55
2022/04/28 08:52:36;;;;;;;10.47;7.33;;;15.50;99.90;;;;;;6333126;27;20236;-53
2022/04/28 08:55:39;;;;;;;8.20;6.70;;;15.60;99.90;;;;;;6331498;28;20336;-55
2022/04/28 08:58:42;;;;;;;8.10;7.40;;;15.60;99.90;;;;;;6335353;27;20247;-54
2022/04/28 09:01:45;;;;;;;9.67;7.20;;;15.70;99.90;;;;;;6326921;28;20309;-56
2022/04/28 09:04:51;;;;;;;9.57;7.57;;;15.90;99.90;;;;;;6333451;27;20728;-55
2022/04/28 09:07:54;;;;;;;8.00;7.20;;;15.80;99.90;;;;;;6333903;27;20423;-54
2022/04/28 09:11:00;;;;;;;12.57;7.83;;;15.80;99.90;;;;;;6329737;27;20326;-54
2022/04/28 09:14:11;;;;;;;8.30;7.57;;;15.70;99.90;;;;;;6333310;27;20349;-54
2022/04/28 09:17:13;;;;;;;8.83;7.73;;;15.60;99.90;;;;;;6343287;27;20236;-54
2022/04/28 09:20:22;;;;;;;8.37;7.67;;;15.70;99.90;;;;;;6332288;27;20660;-54
2022/04/28 09:23:25;;;;;;;13.93;7.87;;;15.90;99.90;;;;;;6334861;27;20773;-54
2022/04/28 09:26:28;;;;;;;11.87;7.93;;;15.90;99.90;;;;;;6329654;27;20273;-54
2022/04/28 09:29:39;;;;;;;8.47;7.40;;;16.10;99.90;;;;;;6331147;27;20843;-53
2022/04/28 09:32:43;;;;;;;12.10;8.13;;;15.90;99.90;;;;;;6340100;27;20300;-53
2022/04/28 09:35:56;;;;;;;7.87;7.20;;;15.80;99.90;;;;;;6334168;27;20377;-56
2022/04/28 09:38:59;;;;;;;8.97;7.80;;;15.90;99.90;;;;;;6331195;28;20315;-55
2022/04/28 09:45:25;;;;;;;8.73;7.47;;;16.50;99.90;;;;;;6309074;28;20311;-53
2022/04/28 09:48:32;;;;;;;8.80;7.13;;;17.00;99.90;;;;;;6303408;28;20375;-54
2022/04/28 09:51:44;;;;;;;8.30;7.53;;;16.90;99.90;;;;;;6310406;28;20369;-55
2022/04/28 09:54:48;;;;;;;9.80;7.87;;;16.90;99.90;;;;;;6311993;27;20726;-54
2022/04/28 09:57:51;;;;;;;10.80;8.17;;;16.70;99.90;;;;;;6299715;28;20321;-54
2022/04/28 10:01:00;;;;;;;7.27;6.73;;;16.70;99.90;;;;;;6315275;27;20362;-54
2022/04/28 10:04:06;;;;;;;9.13;7.57;;;16.90;99.90;;;;;;6328207;27;20696;-55
2022/04/28 10:07:13;;;;;;;8.00;7.30;;;17.10;99.90;;;;;;6310747;28;20236;-56
2022/04/28 10:10:16;;;;;;;7.20;6.70;;;17.40;99.90;;;;;;6306190;28;20742;-55
2022/04/28 10:13:20;;;;;;;11.00;7.47;;;17.20;99.90;;;;;;6309295;28;20315;-55
2022/04/28 10:16:25;;;;;;;8.63;7.13;;;17.20;99.90;;;;;;6309205;28;20833;-55
2022/04/28 10:19:34;;;;;;;12.90;7.37;;;16.80;99.90;;;;;;6309837;28;20236;-53
2022/04/28 10:22:41;;;;;;;7.67;7.00;;;16.70;99.90;;;;;;6313359;28;20236;-54
2022/04/28 10:32:54;;;;;;;9.47;7.17;;;16.20;99.90;;;;;;6291479;28;20334;-54
2022/04/28 10:36:01;;;;;;;7.80;7.20;;;16.40;99.90;;;;;;6300456;28;20772;-55
2022/04/28 10:39:09;;;;;;;7.73;7.10;;;16.80;99.90;;;;;;6304997;28;20244;-54
2022/04/28 10:42:13;;;;;;;12.70;7.10;;;17.20;99.90;;;;;;6308063;28;20717;-55
2022/04/28 10:45:22;;;;;;;8.43;7.63;;;17.50;99.90;;;;;;6307796;28;20325;-55
2022/04/28 10:48:34;;;;;;;10.67;6.60;;;17.30;99.90;;;;;;6301454;28;20316;-55
2022/04/28 10:51:43;;;;;;;7.70;7.00;;;17.20;99.90;;;;;;6307059;28;20319;-54
2022/04/28 10:54:47;;;;;;;8.33;7.27;;;17.10;99.90;;;;;;6280213;28;20226;-54
2022/04/28 10:57:49;;;;;;;7.73;7.03;;;17.00;99.90;;;;;;6277187;28;20331;-54
2022/04/28 11:00:53;;;;;;;7.53;6.83;;;17.10;99.90;;;;;;6281227;28;20752;-52
2022/04/28 11:03:57;;;;;;;13.90;7.20;;;17.30;99.90;;;;;;6282922;28;20238;-55
2022/04/28 11:07:08;;;;;;;6.77;6.17;;;17.60;99.90;;;;;;6281098;28;20582;-53
2022/04/28 11:10:15;;;;;;;7.87;6.10;;;17.80;99.90;;;;;;6287974;28;20316;-55
2022/04/28 11:13:22;;;;;;;6.30;5.77;;;18.00;99.90;;;;;;6276944;28;20229;-55
2022/04/28 11:16:26;;;;;;;7.50;6.10;;;18.40;99.90;;;;;;6281149;28;20271;-56
2022/04/28 11:19:30;;;;;;;6.10;5.67;;;18.40;99.90;;;;;;6279108;28;20244;-54
2022/04/28 11:22:33;;;;;;;5.77;5.30;;;18.50;99.90;;;;;;6280966;28;20322;-54
2022/04/28 11:25:38;;;;;;;6.43;5.93;;;18.30;99.90;;;;;;6278192;28;20323;-54
2022/04/28 11:28:42;;;;;;;5.90;5.43;;;18.30;99.90;;;;;;6281153;28;20237;-54
2022/04/28 11:31:46;;;;;;;7.37;6.07;;;18.20;99.90;;;;;;6280797;28;20315;-55
2022/04/28 11:34:50;;;;;;;6.23;5.73;;;18.10;99.90;;;;;;6302436;28;20777;-55
2022/04/28 11:37:55;;;;;;;7.00;5.50;;;18.00;99.90;;;;;;6280549;28;20308;-54
2022/04/28 11:41:03;;;;;;;6.40;5.17;;;18.00;99.90;;;;;;6288482;28;20942;-53
2022/04/28 11:44:07;;;;;;;6.20;5.60;;;18.20;99.90;;;;;;6304977;28;20387;-61
2022/04/28 11:47:10;;;;;;;6.13;5.53;;;18.40;99.90;;;;;;6307141;28;20236;-54
2022/04/28 11:50:20;;;;;;;7.00;5.77;;;18.40;99.90;;;;;;6305468;28;20243;-54
2022/04/28 11:53:23;;;;;;;5.90;5.40;;;18.40;99.90;;;;;;6303509;28;20365;-54
2022/04/28 11:56:31;;;;;;;6.53;5.90;;;18.60;99.90;;;;;;6303036;28;20240;-54
2022/04/28 11:59:36;;;;;;;7.03;6.20;;;18.50;99.90;;;;;;6305962;28;20228;-54
2022/04/28 12:02:41;;;;;;;6.10;5.60;;;18.60;99.90;;;;;;6298688;28;20248;-54
2022/04/28 12:05:44;;;;;;;5.97;5.57;;;18.70;99.90;;;;;;6306947;28;20233;-54
2022/04/28 12:08:53;;;;;;;5.43;5.00;;;18.90;99.90;;;;;;6306748;28;20377;-55
2022/04/28 12:15:20;;;;;;;6.20;5.70;;;19.00;99.90;;;;;;6279969;28;20535;-54
2022/04/28 12:21:46;;;;;;;5.77;5.23;;;19.10;99.90;;;;;;6287772;28;23143;-54
2022/04/28 12:24:50;;;;;;;5.17;4.87;;;19.10;99.90;;;;;;6309079;28;20306;-54
2022/04/28 12:27:55;;;;;;;5.57;5.07;;;19.40;99.90;;;;;;6284287;28;20603;-54
2022/04/28 12:30:58;;;;;;;6.40;5.00;;;19.50;99.90;;;;;;6287993;28;20531;-53
2022/04/28 12:34:11;;;;;;;7.37;4.77;;;19.40;99.90;;;;;;6303085;28;20224;-54
2022/04/28 12:37:25;;;;;;;5.80;5.30;;;19.40;99.90;;;;;;6307964;28;20259;-54
2022/04/28 12:40:35;;;;;;;5.33;4.93;;;19.20;99.90;;;;;;6304205;28;20310;-54
2022/04/28 12:43:42;;;;;;;6.43;5.47;;;19.00;99.90;;;;;;6309634;28;20232;-55
2022/04/28 12:46:45;;;;;;;8.90;5.67;;;18.90;99.90;;;;;;6307704;28;20284;-54
2022/04/28 12:49:49;;;;;;;8.87;5.80;;;18.80;99.90;;;;;;6309424;28;20390;-53
2022/04/28 12:52:53;;;;;;;5.87;5.37;;;18.70;99.90;;;;;;6314402;28;20336;-58
2022/04/28 12:56:03;;;;;;;6.40;5.17;;;18.60;99.90;;;;;;6306147;28;20679;-55
2022/04/28 12:59:09;;;;;;;4.67;4.27;;;18.60;99.90;;;;;;6314809;28;20237;-54
2022/04/28 13:02:12;;;;;;;5.90;5.30;;;18.90;99.90;;;;;;6306934;28;20229;-53
2022/04/28 13:05:17;;;;;;;5.10;4.60;;;19.20;99.90;;;;;;6298993;28;20244;-53
2022/04/28 13:08:38;;;;;;;5.53;5.10;;;19.40;99.90;;;;;;6307992;28;20241;-54
2022/04/28 13:11:43;;;;;;;4.43;3.83;;;19.50;99.90;;;;;;6302520;28;20237;-53
2022/04/28 13:14:47;;;;;;;6.47;4.80;;;19.70;99.90;;;;;;6308202;28;20244;-53
2022/04/28 13:17:50;;;;;;;5.87;4.20;;;19.90;99.90;;;;;;6305814;28;20240;-54
2022/04/28 13:20:52;;;;;;;7.97;5.23;;;20.00;99.90;;;;;;6301881;28;20312;-54
2022/04/28 13:23:56;;;;;;;6.27;4.73;;;20.00;99.90;;;;;;6308360;28;20978;-54
2022/04/28 13:26:59;;;;;;;5.20;4.70;;;20.20;99.90;;;;;;6307073;27;20545;-53
2022/04/28 13:30:07;;;;;;;8.83;4.53;;;20.20;99.90;;;;;;6309180;28;20239;-53
2022/04/28 13:33:11;;;;;;;7.17;4.70;;;20.30;99.90;;;;;;6308958;28;20281;-54
2022/04/28 13:36:15;;;;;;;4.83;4.47;;;20.60;99.90;;;;;;6303588;28;20245;-53
2022/04/28 13:39:18;;;;;;;5.73;4.83;;;20.70;99.90;;;;;;6287413;28;20367;-54
2022/04/28 13:42:21;;;;;;;7.70;4.50;;;20.40;99.90;;;;;;6278004;28;20320;-53
2022/04/28 13:45:25;;;;;;;5.10;4.70;;;20.30;99.90;;;;;;6294475;28;20232;-53
2022/04/28 13:48:28;;;;;;;4.83;4.53;;;20.40;99.90;;;;;;6286378;28;20786;-54
2022/04/28 13:51:31;;;;;;;5.77;4.90;;;20.20;99.90;;;;;;6282484;28;20295;-55
2022/04/28 13:54:34;;;;;;;5.10;4.60;;;20.20;99.90;;;;;;6279348;28;20362;-53
2022/04/28 13:57:38;;;;;;;5.67;4.47;;;20.20;99.90;;;;;;6290559;28;20425;-53
2022/04/28 14:00:50;;;;;;;5.60;5.10;;;20.30;99.90;;;;;;6304217;28;20899;-54
2022/04/28 14:03:55;;;;;;;5.03;4.70;;;20.30;99.90;;;;;;6306861;28;20311;-53
2022/04/28 14:06:58;;;;;;;6.03;4.80;;;20.10;99.90;;;;;;6310583;28;20244;-54
2022/04/28 14:10:01;;;;;;;4.97;4.57;;;20.00;99.90;;;;;;6306396;28;20301;-53
2022/04/28 14:13:04;;;;;;;4.43;4.13;;;20.10;99.90;;;;;;6298225;28;20255;-53
2022/04/28 14:16:08;;;;;;;6.20;4.57;;;19.70;99.90;;;;;;6310362;28;20552;-54
2022/04/28 14:19:11;;;;;;;6.77;4.87;;;19.70;99.90;;;;;;6303972;28;20258;-54
2022/04/28 14:22:17;;;;;;;5.77;4.47;;;19.60;99.90;;;;;;6314603;28;20225;-55
2022/04/28 14:25:20;;;;;;;6.07;4.37;;;19.50;99.90;;;;;;6300282;28;20371;-54
2022/04/28 14:28:23;;;;;;;4.87;4.40;;;19.50;99.90;;;;;;6296228;28;20359;-54
2022/04/28 14:31:27;;;;;;;4.67;4.17;;;19.50;99.90;;;;;;6304547;28;20672;-52
2022/04/28 14:34:50;;;;;;;5.47;4.70;;;19.50;99.90;;;;;;6302257;28;20774;-54
2022/04/28 14:37:53;;;;;;;4.30;4.00;;;19.10;99.90;;;;;;6301372;28;20846;-60
2022/04/28 14:40:56;;;;;;;6.40;4.47;;;19.10;99.90;;;;;;6295521;28;20986;-53
2022/04/28 14:44:01;;;;;;;6.97;4.30;;;19.00;99.90;;;;;;6305295;28;20476;-54
2022/04/28 14:47:08;;;;;;;4.03;3.80;;;19.00;99.90;;;;;;6306694;28;20243;-54
2022/04/28 14:53:37;;;;;;;4.37;4.03;;;19.30;99.90;;;;;;6305597;28;20735;-54
2022/04/28 14:56:39;;;;;;;6.60;4.87;;;19.30;99.90;;;;;;6298684;28;20329;-54
2022/04/28 14:59:42;;;;;;;8.30;5.00;;;19.30;99.90;;;;;;6293030;28;20236;-55
2022/04/28 15:02:47;;;;;;;4.43;4.10;;;19.20;99.90;;;;;;6302661;28;20573;-53
2022/04/28 15:05:50;;;;;;;4.33;4.03;;;19.20;99.90;;;;;;6289231;28;20319;-53
2022/04/28 15:08:56;;;;;;;3.80;3.70;;;19.20;99.90;;;;;;6304692;28;20232;-53
2022/04/28 15:12:00;;;;;;;5.83;3.87;;;19.20;99.90;;;;;;6295820;28;20232;-54
2022/04/28 15:15:04;;;;;;;3.87;3.63;;;19.40;99.90;;;;;;6301411;28;20232;-53
2022/04/28 15:18:08;;;;;;;4.60;4.10;;;19.50;99.90;;;;;;6305144;28;20462;-54
2022/04/28 15:21:13;;;;;;;4.60;4.13;;;19.60;99.90;;;;;;6304883;28;20802;-54
2022/04/28 15:24:18;;;;;;;4.20;3.90;;;19.60;99.90;;;;;;6299917;28;20722;-54
2022/04/28 15:27:21;;;;;;;4.37;4.00;;;19.70;99.90;;;;;;6298036;28;20533;-54
2022/04/28 15:30:24;;;;;;;5.03;4.00;;;19.60;99.90;;;;;;6303015;28;20530;-53
2022/04/28 15:33:28;;;;;;;5.47;4.27;;;19.50;99.90;;;;;;6306277;28;20220;-54
2022/04/28 15:36:31;;;;;;;4.33;3.93;;;19.40;99.90;;;;;;6304387;28;20251;-54
2022/04/28 15:39:36;;;;;;;5.50;4.07;;;19.60;99.90;;;;;;6300431;28;20688;-54
2022/04/28 15:42:40;;;;;;;4.70;3.80;;;19.60;99.90;;;;;;6303652;28;20237;-55
2022/04/28 15:45:43;;;;;;;5.07;4.03;;;19.60;99.90;;;;;;6304602;28;20240;-54
2022/04/28 15:48:47;;;;;;;7.77;4.17;;;19.30;99.90;;;;;;6310550;28;20895;-55
2022/04/28 15:51:50;;;;;;;7.07;4.77;;;19.20;99.90;;;;;;6310107;28;20325;-54
2022/04/28 15:54:52;;;;;;;4.37;4.10;;;19.10;99.90;;;;;;6307590;28;20296;-54
2022/04/28 15:57:55;;;;;;;4.10;3.90;;;18.80;99.90;;;;;;6308149;28;20936;-51
2022/04/28 16:00:58;;;;;;;4.57;4.23;;;18.70;99.90;;;;;;6308246;28;20229;-55
2022/04/28 16:04:03;;;;;;;6.50;3.70;;;18.60;99.90;;;;;;6284525;28;20530;-53
2022/04/28 16:07:06;;;;;;;4.00;3.70;;;18.50;99.90;;;;;;6284087;28;20249;-56
2022/04/28 16:10:10;;;;;;;4.33;3.93;;;18.50;99.90;;;;;;6300387;27;20567;-55
2022/04/28 16:13:19;;;;;;;5.53;3.63;;;18.40;99.90;;;;;;6278222;28;20598;-53
2022/04/28 16:16:22;;;;;;;4.07;3.73;;;18.40;99.90;;;;;;6295702;28;20224;-55
2022/04/28 16:19:30;;;;;;;4.27;3.93;;;18.10;99.90;;;;;;6280068;28;20714;-56
2022/04/28 16:22:34;;;;;;;4.00;3.70;;;18.10;99.90;;;;;;6284725;28;20503;-54
2022/04/28 16:25:38;;;;;;;9.20;4.33;;;18.20;99.90;;;;;;6277946;28;20240;-53
2022/04/28 16:28:41;;;;;;;5.20;4.80;;;18.20;99.90;;;;;;6280899;28;20320;-53
2022/04/28 16:31:46;;;;;;;4.23;4.03;;;18.10;99.90;;;;;;6306749;28;20228;-54
2022/04/28 16:34:50;;;;;;;4.90;4.00;;;18.00;99.90;;;;;;6303799;28;20312;-54
2022/04/28 16:37:58;;;;;;;4.20;3.90;;;18.00;99.90;;;;;;6307770;28;20624;-55
2022/04/28 16:41:02;;;;;;;4.23;4.03;;;17.90;99.90;;;;;;6293986;28;20912;-55